Time;durP1;ratioP1;P1;durP2;ratioP2;P2;SDS_P1;SDS_P2;PMS_P1;PMS_P2;Temp;Humidity;BMP_temperature;BMP_pressure;BME280_temperature;BME280_humidity;BME280_pressure;Samples;Min_cycle;Max_cycle;Signal;HPM_P1;HPM_P2
2021/08/23 00:00:33;;;;;;;7.40;5.30;;;14.80;99.90;;;;;;5044681;28;20646;-89
2021/08/23 00:02:59;;;;;;;9.10;5.60;;;14.80;99.90;;;;;;5043134;28;20179;-91
2021/08/23 00:05:24;;;;;;;9.90;6.30;;;14.80;99.90;;;;;;5046571;28;20195;-85
2021/08/23 00:07:50;;;;;;;6.47;4.90;;;14.80;99.90;;;;;;5044840;28;20195;-87
2021/08/23 00:10:16;;;;;;;6.93;5.53;;;14.70;99.90;;;;;;5048736;28;20182;-88
2021/08/23 00:12:41;;;;;;;7.80;5.60;;;14.70;99.90;;;;;;5046871;28;20194;-89
2021/08/23 00:15:09;;;;;;;6.87;5.20;;;14.60;99.90;;;;;;5044081;28;20200;-90
2021/08/23 00:17:34;;;;;;;8.40;5.27;;;14.50;99.90;;;;;;5037493;28;20175;-87
2021/08/23 00:20:00;;;;;;;9.93;6.03;;;14.50;99.90;;;;;;5037634;28;20459;-90
2021/08/23 00:22:32;;;;;;;6.67;5.97;;;14.40;99.90;;;;;;5037309;28;20176;-87
2021/08/23 00:25:00;;;;;;;5.97;5.37;;;14.40;99.90;;;;;;5037569;28;20211;-86
2021/08/23 00:27:27;;;;;;;7.30;5.00;;;14.40;99.90;;;;;;5037734;28;20406;-84
2021/08/23 00:29:52;;;;;;;9.50;6.07;;;14.30;99.90;;;;;;5037291;28;20453;-89
2021/08/23 00:32:18;;;;;;;6.30;5.70;;;14.30;99.90;;;;;;5037295;28;20409;-88
2021/08/23 00:34:44;;;;;;;8.87;5.07;;;14.30;99.90;;;;;;5037345;28;20289;-88
2021/08/23 00:37:09;;;;;;;8.93;5.93;;;14.30;99.90;;;;;;5036942;28;20500;-86
2021/08/23 00:39:36;;;;;;;9.17;5.90;;;14.30;99.90;;;;;;5037333;28;20531;-88
2021/08/23 00:42:03;;;;;;;10.00;6.40;;;14.30;99.90;;;;;;5036853;28;20178;-87
2021/08/23 00:44:34;;;;;;;8.00;6.80;;;14.30;99.90;;;;;;5037114;28;20798;-85
2021/08/23 00:47:00;;;;;;;8.83;5.90;;;14.30;99.90;;;;;;5037176;28;20411;-88
2021/08/23 00:49:26;;;;;;;9.13;6.47;;;14.30;99.90;;;;;;5036723;28;20784;-87
2021/08/23 00:51:55;;;;;;;10.27;6.90;;;14.40;99.90;;;;;;5037280;28;20770;-86
2021/08/23 00:54:21;;;;;;;9.00;5.80;;;14.40;99.90;;;;;;5049049;28;20408;-88
2021/08/23 00:56:50;;;;;;;12.50;6.80;;;14.50;99.90;;;;;;5051943;28;20412;-84
2021/08/23 00:59:18;;;;;;;10.50;7.10;;;14.50;99.90;;;;;;5050431;28;20409;-82
2021/08/23 01:01:58;;;;;;;8.40;6.03;;;14.50;99.90;;;;;;5043947;28;20429;-88
2021/08/23 01:04:39;;;;;;;8.77;6.47;;;14.50;99.90;;;;;;5040858;28;20453;-90
2021/08/23 01:07:08;;;;;;;13.10;7.33;;;14.50;99.90;;;;;;5041035;28;20435;-90
2021/08/23 01:09:38;;;;;;;10.57;6.67;;;14.50;99.90;;;;;;5053163;28;20439;-88
2021/08/23 01:12:04;;;;;;;10.93;7.70;;;14.50;99.90;;;;;;5038339;28;20538;-90
2021/08/23 01:14:30;;;;;;;7.83;6.83;;;14.50;99.90;;;;;;5053337;28;20439;-87
2021/08/23 01:16:56;;;;;;;10.27;7.10;;;14.50;99.90;;;;;;5055558;28;20421;-87
2021/08/23 01:19:23;;;;;;;9.13;7.00;;;14.50;99.90;;;;;;5055619;28;20175;-87
2021/08/23 01:21:52;;;;;;;8.67;6.80;;;14.50;99.90;;;;;;5055608;28;20162;-84
2021/08/23 01:24:20;;;;;;;11.47;6.07;;;14.50;99.90;;;;;;5055964;28;20483;-86
2021/08/23 01:26:49;;;;;;;8.40;6.33;;;14.50;99.90;;;;;;5055968;28;20422;-86
2021/08/23 01:29:26;;;;;;;8.30;5.33;;;14.50;99.90;;;;;;5055601;28;20404;-88
2021/08/23 01:32:00;;;;;;;9.97;5.47;;;14.50;99.90;;;;;;5055796;28;20409;-88
2021/08/23 01:34:27;;;;;;;13.33;5.80;;;14.60;99.90;;;;;;5055711;28;20411;-87
2021/08/23 01:36:52;;;;;;;6.70;4.83;;;14.70;99.90;;;;;;5055213;28;20492;-86
2021/08/23 01:39:20;;;;;;;8.80;6.03;;;14.60;99.90;;;;;;5055616;28;20507;-88
2021/08/23 01:41:45;;;;;;;9.47;5.20;;;14.60;99.90;;;;;;5055477;28;20237;-86
2021/08/23 01:44:11;;;;;;;11.13;5.10;;;14.60;99.90;;;;;;5053960;28;20417;-87
2021/08/23 01:46:37;;;;;;;9.40;4.60;;;14.60;99.90;;;;;;5055369;28;20264;-87
2021/08/23 01:49:05;;;;;;;7.63;5.10;;;14.70;99.90;;;;;;5055187;28;20222;-88
2021/08/23 01:51:31;;;;;;;5.77;4.27;;;14.60;99.90;;;;;;5054980;28;20175;-85
2021/08/23 01:53:56;;;;;;;7.60;4.57;;;14.70;99.90;;;;;;5055396;28;21034;-85
2021/08/23 01:56:23;;;;;;;5.97;4.40;;;14.70;99.90;;;;;;5055847;28;20230;-89
2021/08/23 01:58:48;;;;;;;6.57;3.83;;;14.70;99.90;;;;;;5055887;28;20262;-90
2021/08/23 02:01:14;;;;;;;5.20;4.03;;;14.70;99.90;;;;;;5055830;28;20830;-90
2021/08/23 02:03:39;;;;;;;4.43;3.20;;;14.70;99.90;;;;;;5055755;28;20215;-90
2021/08/23 02:06:05;;;;;;;4.33;2.37;;;14.80;99.90;;;;;;5055223;28;20211;-90
2021/08/23 02:08:31;;;;;;;8.10;3.20;;;14.70;99.90;;;;;;5055959;28;20172;-90
2021/08/23 02:10:56;;;;;;;6.93;3.67;;;14.70;99.90;;;;;;5054555;28;20292;-90
2021/08/23 02:13:22;;;;;;;5.47;2.97;;;14.80;99.90;;;;;;5055861;28;20223;-90
2021/08/23 02:15:47;;;;;;;7.90;4.20;;;14.70;99.90;;;;;;5054454;28;20181;-88
2021/08/23 02:18:13;;;;;;;9.63;3.43;;;14.70;99.90;;;;;;5055687;28;20300;-87
2021/08/23 02:20:39;;;;;;;6.00;3.17;;;14.70;99.90;;;;;;5055311;28;20228;-90
2021/08/23 02:23:05;;;;;;;4.40;2.70;;;14.80;99.90;;;;;;5054911;28;20179;-90
2021/08/23 02:25:30;;;;;;;7.17;3.23;;;14.70;99.90;;;;;;5035854;28;20218;-90
2021/08/23 02:27:56;;;;;;;4.33;2.53;;;14.80;99.90;;;;;;5034804;28;20456;-89
2021/08/23 02:30:22;;;;;;;6.80;2.57;;;14.70;99.90;;;;;;5044554;28;20240;-90
2021/08/23 02:32:48;;;;;;;3.90;2.20;;;14.70;99.90;;;;;;5055256;28;20183;-91
2021/08/23 02:35:14;;;;;;;4.10;1.80;;;14.70;99.90;;;;;;5054981;28;20503;-89
2021/08/23 02:37:40;;;;;;;4.63;1.83;;;14.70;99.90;;;;;;5054992;28;20459;-89
2021/08/23 02:40:06;;;;;;;4.20;2.10;;;14.70;99.90;;;;;;5055225;28;20433;-88
2021/08/23 02:42:32;;;;;;;6.80;1.53;;;14.70;99.90;;;;;;5055443;28;20167;-90
2021/08/23 02:44:57;;;;;;;2.70;1.47;;;14.70;99.90;;;;;;5055773;28;20467;-90
2021/08/23 02:47:23;;;;;;;5.40;2.33;;;14.60;99.90;;;;;;5055469;28;20178;-90
2021/08/23 02:49:48;;;;;;;3.60;2.10;;;14.50;99.90;;;;;;5054964;28;20225;-91
2021/08/23 02:52:14;;;;;;;3.50;1.60;;;14.50;99.90;;;;;;5054978;28;20181;-83
2021/08/23 02:54:40;;;;;;;3.47;2.03;;;14.40;99.90;;;;;;5054014;28;20170;-82
2021/08/23 02:57:06;;;;;;;4.50;1.80;;;14.40;99.90;;;;;;5053922;28;20224;-82
2021/08/23 02:59:31;;;;;;;3.50;1.57;;;14.30;99.90;;;;;;5053953;28;20622;-83
2021/08/23 03:01:57;;;;;;;2.90;2.60;;;14.20;99.90;;;;;;5053879;28;20170;-82
2021/08/23 03:04:23;;;;;;;5.80;1.90;;;14.30;99.90;;;;;;5053672;28;20246;-82
2021/08/23 03:06:48;;;;;;;5.00;1.70;;;14.20;99.90;;;;;;5053209;28;20272;-82
2021/08/23 03:09:14;;;;;;;4.63;2.20;;;14.20;99.90;;;;;;5053586;28;20182;-82
2021/08/23 03:11:40;;;;;;;5.00;1.90;;;14.20;99.90;;;;;;5053734;28;20178;-82
2021/08/23 03:14:05;;;;;;;4.73;1.80;;;14.20;99.90;;;;;;5053745;28;20257;-81
2021/08/23 03:16:32;;;;;;;4.20;1.90;;;14.10;99.90;;;;;;5053593;28;20252;-81
2021/08/23 03:18:57;;;;;;;3.37;1.67;;;14.10;99.90;;;;;;5053550;28;20177;-81
2021/08/23 03:21:23;;;;;;;3.53;1.43;;;14.10;99.90;;;;;;5053103;28;20428;-81
2021/08/23 03:23:49;;;;;;;3.40;1.80;;;14.10;99.90;;;;;;5053581;28;20588;-82
2021/08/23 03:26:14;;;;;;;3.60;1.10;;;14.10;99.90;;;;;;5053394;28;20219;-82
2021/08/23 03:28:40;;;;;;;4.27;1.03;;;14.10;99.90;;;;;;5053553;28;20180;-82
2021/08/23 03:31:06;;;;;;;3.20;1.17;;;14.20;99.90;;;;;;5053482;28;20174;-81
2021/08/23 03:33:33;;;;;;;5.70;1.10;;;14.10;99.90;;;;;;5053350;28;20173;-82
2021/08/23 03:35:59;;;;;;;2.60;1.23;;;14.20;99.90;;;;;;5052917;28;20178;-81
2021/08/23 03:38:24;;;;;;;4.03;1.10;;;14.20;99.90;;;;;;5053268;28;20478;-82
2021/08/23 03:40:50;;;;;;;7.27;1.10;;;14.10;99.90;;;;;;5053199;28;20414;-81
2021/08/23 03:43:16;;;;;;;2.83;1.23;;;14.10;99.90;;;;;;5053115;28;20178;-82
2021/08/23 03:45:41;;;;;;;5.37;0.90;;;14.10;99.90;;;;;;5053132;28;20680;-82
2021/08/23 03:48:07;;;;;;;3.53;0.93;;;14.10;99.90;;;;;;5052964;28;20215;-82
2021/08/23 03:50:32;;;;;;;2.80;1.93;;;14.10;99.90;;;;;;5052784;28;20182;-82
2021/08/23 03:52:58;;;;;;;3.10;1.10;;;14.00;99.90;;;;;;5053062;28;20193;-83
2021/08/23 03:55:24;;;;;;;3.00;1.00;;;14.00;99.90;;;;;;5052847;28;20186;-82
2021/08/23 03:57:49;;;;;;;3.57;1.17;;;13.90;99.90;;;;;;5053034;28;20174;-83
2021/08/23 04:00:15;;;;;;;3.70;0.93;;;13.90;99.90;;;;;;5052946;28;20189;-82
2021/08/23 04:02:40;;;;;;;3.33;0.83;;;13.80;99.90;;;;;;5053051;28;20227;-83
2021/08/23 04:05:07;;;;;;;4.30;1.10;;;13.80;99.90;;;;;;5051862;28;20340;-82
2021/08/23 04:07:33;;;;;;;2.40;1.07;;;13.70;99.90;;;;;;5042766;28;20184;-82
2021/08/23 04:09:59;;;;;;;4.00;1.00;;;13.70;99.90;;;;;;5053611;28;20514;-83
2021/08/23 04:12:24;;;;;;;3.73;1.47;;;13.60;99.90;;;;;;5053801;28;20174;-83
2021/08/23 04:14:50;;;;;;;3.63;1.17;;;13.60;99.90;;;;;;5053964;28;20596;-83
2021/08/23 04:17:15;;;;;;;2.80;0.90;;;13.60;99.90;;;;;;5052294;28;20209;-83
2021/08/23 04:19:41;;;;;;;4.70;1.60;;;13.50;99.90;;;;;;5052897;28;20181;-83
2021/08/23 04:22:07;;;;;;;3.53;1.03;;;13.50;99.90;;;;;;5052841;28;20176;-83
2021/08/23 04:24:32;;;;;;;5.70;1.17;;;13.40;99.90;;;;;;5053087;28;20270;-84
2021/08/23 04:26:58;;;;;;;3.33;1.10;;;13.40;99.90;;;;;;5052824;28;20173;-83
2021/08/23 04:29:23;;;;;;;3.40;1.37;;;13.40;99.90;;;;;;5051703;28;20695;-83
2021/08/23 04:31:49;;;;;;;2.57;1.37;;;13.30;99.90;;;;;;5052715;28;20186;-83
2021/08/23 04:34:15;;;;;;;2.50;1.03;;;13.40;99.90;;;;;;5052771;28;20174;-83
2021/08/23 04:36:40;;;;;;;2.50;1.00;;;13.30;99.90;;;;;;5052195;28;20203;-83
2021/08/23 04:39:06;;;;;;;3.50;1.40;;;13.30;99.90;;;;;;5052655;28;20172;-84
2021/08/23 04:41:40;;;;;;;3.30;1.10;;;13.40;99.90;;;;;;5052788;28;20189;-83
2021/08/23 04:44:06;;;;;;;4.07;1.47;;;13.40;99.90;;;;;;5052593;28;20426;-84
2021/08/23 04:46:32;;;;;;;3.97;1.30;;;13.40;99.90;;;;;;5052719;28;20428;-86
2021/08/23 04:48:58;;;;;;;2.67;1.33;;;13.40;99.90;;;;;;5052384;28;20452;-86
2021/08/23 04:51:24;;;;;;;2.43;1.10;;;13.40;99.90;;;;;;5052059;28;20433;-84
2021/08/23 04:53:49;;;;;;;8.73;1.53;;;13.50;99.90;;;;;;5052612;28;20180;-86
2021/08/23 04:56:16;;;;;;;6.10;1.67;;;13.50;99.90;;;;;;5056282;28;20634;-84
2021/08/23 04:58:42;;;;;;;5.50;1.37;;;13.50;99.90;;;;;;5056199;28;20626;-88
2021/08/23 05:01:08;;;;;;;3.20;1.73;;;13.60;99.90;;;;;;5055797;28;20446;-86
2021/08/23 05:03:34;;;;;;;8.87;1.80;;;13.70;99.90;;;;;;5044648;28;20420;-86
2021/08/23 05:05:59;;;;;;;7.83;1.17;;;13.70;99.90;;;;;;5046492;28;20214;-86
2021/08/23 05:08:25;;;;;;;9.00;1.50;;;13.70;99.90;;;;;;5043716;28;20174;-86
2021/08/23 05:10:51;;;;;;;5.27;1.30;;;13.70;99.90;;;;;;5041789;28;20607;-86
2021/08/23 05:13:17;;;;;;;3.30;1.23;;;13.70;99.90;;;;;;5040411;28;20220;-85
2021/08/23 05:15:42;;;;;;;6.20;2.03;;;13.80;99.90;;;;;;5044662;28;20170;-85
2021/08/23 05:18:08;;;;;;;2.83;1.57;;;13.70;99.90;;;;;;5045631;28;20213;-85
2021/08/23 05:20:34;;;;;;;3.83;1.60;;;13.80;99.90;;;;;;5048376;28;20200;-83
2021/08/23 05:23:00;;;;;;;3.90;1.87;;;13.90;99.90;;;;;;5044143;28;20678;-84
2021/08/23 05:25:25;;;;;;;5.13;1.50;;;13.90;99.90;;;;;;5044199;28;20565;-84
2021/08/23 05:27:51;;;;;;;4.80;1.77;;;14.10;99.90;;;;;;5045050;28;20181;-85
2021/08/23 05:30:17;;;;;;;4.30;1.53;;;14.30;99.90;;;;;;5047755;28;20271;-85
2021/08/23 05:32:42;;;;;;;3.73;1.73;;;14.40;99.90;;;;;;5043998;28;20509;-84
2021/08/23 05:35:09;;;;;;;4.20;1.70;;;14.90;99.90;;;;;;5044947;28;20240;-85
2021/08/23 05:37:35;;;;;;;3.10;1.50;;;15.00;99.90;;;;;;5048474;28;20174;-83
2021/08/23 05:40:00;;;;;;;2.83;1.13;;;15.50;99.90;;;;;;5044082;28;20414;-82
2021/08/23 05:42:26;;;;;;;3.83;2.03;;;16.10;99.90;;;;;;5042854;28;20184;-81
2021/08/23 05:44:53;;;;;;;4.57;1.47;;;16.50;99.90;;;;;;5035406;28;20199;-81
2021/08/23 05:47:19;;;;;;;6.70;2.00;;;16.60;99.90;;;;;;5035477;28;20175;-83
2021/08/23 05:49:45;;;;;;;6.67;1.00;;;16.90;99.90;;;;;;5034821;28;20451;-83
2021/08/23 05:52:11;;;;;;;3.13;1.80;;;16.90;99.90;;;;;;5035241;28;20179;-86
2021/08/23 05:54:39;;;;;;;4.50;1.23;;;17.30;99.90;;;;;;5035226;28;20654;-83
2021/08/23 05:57:05;;;;;;;5.10;1.60;;;17.20;99.90;;;;;;5035198;28;20412;-83
2021/08/23 05:59:31;;;;;;;4.20;1.77;;;17.90;99.90;;;;;;5035099;28;20469;-82
2021/08/23 06:01:56;;;;;;;5.30;1.97;;;18.30;99.90;;;;;;5035003;28;20506;-84
2021/08/23 06:04:22;;;;;;;8.20;2.30;;;18.90;99.90;;;;;;5034487;28;20208;-83
2021/08/23 06:06:49;;;;;;;3.83;1.17;;;19.40;99.90;;;;;;5034986;28;20185;-84
2021/08/23 06:09:16;;;;;;;3.27;1.17;;;20.10;99.90;;;;;;5034994;28;20945;-83
2021/08/23 06:11:42;;;;;;;3.00;1.23;;;19.90;99.90;;;;;;5034938;28;20412;-84
2021/08/23 06:14:08;;;;;;;3.80;0.80;;;20.50;99.90;;;;;;5034800;28;20502;-85
2021/08/23 06:16:33;;;;;;;5.00;1.10;;;20.10;99.90;;;;;;5048204;28;20438;-85
2021/08/23 06:18:59;;;;;;;5.60;2.17;;;20.00;99.90;;;;;;5054828;28;20181;-87
2021/08/23 06:21:26;;;;;;;5.47;0.70;;;20.10;99.90;;;;;;5054266;28;20201;-83
2021/08/23 06:23:52;;;;;;;2.50;0.77;;;20.00;99.90;;;;;;5054771;28;20225;-82
2021/08/23 06:26:17;;;;;;;2.73;0.73;;;20.50;99.90;;;;;;5054559;28;20474;-82
2021/08/23 06:28:43;;;;;;;3.60;1.07;;;21.40;99.90;;;;;;5054726;28;20173;-84
2021/08/23 06:31:09;;;;;;;2.87;0.93;;;21.10;99.90;;;;;;5054414;28;20196;-86
2021/08/23 06:33:35;;;;;;;3.90;1.03;;;20.80;99.90;;;;;;5054402;28;20239;-86
2021/08/23 06:36:01;;;;;;;2.70;1.03;;;21.20;99.90;;;;;;5054077;28;20184;-84
2021/08/23 06:38:26;;;;;;;4.73;1.03;;;22.40;99.90;;;;;;5054474;28;20421;-83
2021/08/23 06:40:52;;;;;;;3.33;1.10;;;23.20;99.90;;;;;;5054352;28;20267;-84
2021/08/23 06:43:17;;;;;;;4.20;1.53;;;22.70;99.90;;;;;;5054276;28;20652;-84
2021/08/23 06:45:43;;;;;;;3.47;0.87;;;22.80;99.90;;;;;;5054213;28;20209;-85
2021/08/23 06:48:09;;;;;;;4.13;1.13;;;23.30;99.90;;;;;;5053948;28;20513;-85
2021/08/23 06:50:34;;;;;;;2.70;1.00;;;23.00;99.90;;;;;;5053733;28;20188;-85
2021/08/23 06:53:02;;;;;;;2.53;0.70;;;23.20;99.90;;;;;;5054062;28;20165;-84
2021/08/23 06:55:28;;;;;;;3.53;0.80;;;23.80;99.90;;;;;;5054004;28;20177;-82
2021/08/23 06:57:53;;;;;;;2.43;0.80;;;24.00;99.90;;;;;;5054040;28;20416;-85
2021/08/23 07:00:19;;;;;;;4.00;1.00;;;24.10;99.90;;;;;;5053855;28;20248;-84
2021/08/23 07:02:45;;;;;;;2.90;0.87;;;24.40;99.90;;;;;;5053893;28;20170;-81
2021/08/23 07:05:11;;;;;;;2.50;0.70;;;24.20;99.90;;;;;;5053898;28;20264;-86
2021/08/23 07:07:36;;;;;;;4.57;1.13;;;23.60;99.90;;;;;;5056171;28;20180;-85
2021/08/23 07:10:02;;;;;;;5.33;0.60;;;24.40;99.90;;;;;;5053057;28;20827;-83
2021/08/23 07:12:28;;;;;;;3.27;0.93;;;25.10;99.90;;;;;;5054415;28;20170;-84
2021/08/23 07:14:54;;;;;;;3.20;0.50;;;25.20;99.90;;;;;;5055714;28;20901;-85
2021/08/23 07:17:19;;;;;;;1.50;0.60;;;25.20;99.90;;;;;;5055386;28;20638;-85
2021/08/23 07:19:45;;;;;;;2.00;0.53;;;25.60;99.90;;;;;;5056403;28;20181;-85
2021/08/23 07:22:18;;;;;;;1.70;0.30;;;26.20;99.90;;;;;;5054399;28;20165;-84
2021/08/23 07:24:44;;;;;;;2.50;0.63;;;26.70;99.90;;;;;;5054545;28;20197;-84
2021/08/23 07:27:10;;;;;;;1.90;0.50;;;26.50;99.90;;;;;;5058118;28;20412;-84
2021/08/23 07:29:36;;;;;;;5.60;1.57;;;26.30;99.90;;;;;;5052653;28;20523;-84
2021/08/23 07:32:02;;;;;;;5.87;0.80;;;26.50;99.90;;;;;;5057667;28;20227;-85
2021/08/23 07:34:27;;;;;;;2.17;0.70;;;26.70;99.90;;;;;;5053282;28;20181;-87
2021/08/23 07:36:53;;;;;;;7.60;1.30;;;26.90;99.90;;;;;;5053766;28;20193;-87
2021/08/23 07:39:18;;;;;;;2.77;0.70;;;26.40;99.90;;;;;;5052233;28;20656;-88
2021/08/23 07:41:44;;;;;;;2.07;0.60;;;26.70;99.90;;;;;;5053237;28;20180;-87
2021/08/23 07:44:10;;;;;;;2.60;0.40;;;27.10;99.90;;;;;;5053211;28;20173;-87
2021/08/23 07:46:36;;;;;;;3.60;0.30;;;26.90;99.90;;;;;;5053319;28;20273;-87
2021/08/23 07:49:02;;;;;;;2.97;0.60;;;27.20;99.90;;;;;;5052518;28;20551;-87
2021/08/23 07:51:28;;;;;;;2.70;0.30;;;27.60;99.90;;;;;;5053576;28;20927;-84
2021/08/23 07:53:53;;;;;;;2.20;0.67;;;27.00;99.90;;;;;;5052685;28;20404;-89
2021/08/23 07:56:19;;;;;;;2.03;0.53;;;27.00;99.90;;;;;;5053156;28;20541;-87
2021/08/23 07:58:44;;;;;;;1.67;0.40;;;26.90;99.90;;;;;;5052517;28;20170;-91
2021/08/23 08:01:10;;;;;;;4.10;0.90;;;27.10;99.90;;;;;;5038358;28;20654;-87
2021/08/23 08:03:37;;;;;;;2.10;0.50;;;27.10;99.90;;;;;;5034622;28;20162;-94
2021/08/23 08:06:03;;;;;;;2.47;0.43;;;27.00;99.90;;;;;;5032625;28;20626;-89
2021/08/23 08:08:29;;;;;;;1.57;0.70;;;27.40;99.90;;;;;;5042120;28;20412;-90
2021/08/23 08:10:58;;;;;;;1.53;0.30;;;28.10;99.90;;;;;;5059783;28;20181;-89
2021/08/23 08:13:26;;;;;;;1.77;0.60;;;28.70;97.90;;;;;;5069291;28;20177;-93
2021/08/23 08:15:52;;;;;;;1.70;0.60;;;28.50;96.10;;;;;;5069815;28;20522;-91
2021/08/23 08:18:18;;;;;;;2.00;0.50;;;28.10;96.70;;;;;;5063267;28;20975;-88
2021/08/23 08:20:45;;;;;;;2.60;0.50;;;28.20;97.00;;;;;;5052584;28;20422;-88
2021/08/23 08:23:10;;;;;;;2.00;0.50;;;28.00;94.90;;;;;;5056125;28;20416;-89
2021/08/23 08:25:36;;;;;;;1.10;0.27;;;28.40;96.70;;;;;;5054460;28;20575;-94
2021/08/23 08:28:02;;;;;;;1.37;0.40;;;28.20;95.50;;;;;;5052669;28;20717;-92
2021/08/23 08:30:27;;;;;;;1.53;0.50;;;28.40;94.70;;;;;;5054292;28;20314;-90
2021/08/23 08:32:53;;;;;;;1.80;0.83;;;28.60;96.50;;;;;;5057348;28;20165;-90
2021/08/23 08:35:19;;;;;;;1.77;0.70;;;28.40;94.30;;;;;;5047266;28;20182;-89
2021/08/23 08:37:44;;;;;;;1.23;0.50;;;28.40;93.50;;;;;;5036731;28;20177;-89
2021/08/23 08:40:11;;;;;;;2.00;0.30;;;28.20;89.70;;;;;;5035224;28;20178;-89
2021/08/23 08:42:38;;;;;;;2.37;0.50;;;28.10;92.20;;;;;;5035751;28;20219;-89
2021/08/23 08:45:04;;;;;;;1.90;0.40;;;27.80;93.80;;;;;;5036350;28;20451;-91
2021/08/23 08:47:31;;;;;;;2.50;0.30;;;28.70;92.50;;;;;;5036785;28;20506;-90
2021/08/23 08:49:59;;;;;;;2.23;0.60;;;28.60;89.30;;;;;;5037241;28;20460;-89
2021/08/23 08:52:26;;;;;;;1.47;0.40;;;29.20;90.30;;;;;;5036195;28;20420;-89
2021/08/23 08:54:51;;;;;;;1.10;0.27;;;28.80;90.20;;;;;;5035453;28;20412;-90
2021/08/23 08:57:18;;;;;;;2.63;0.43;;;28.70;92.00;;;;;;5036322;28;20479;-90
2021/08/23 08:59:44;;;;;;;0.90;0.30;;;28.80;91.20;;;;;;5035769;28;20178;-90
2021/08/23 09:02:10;;;;;;;2.07;0.43;;;29.50;90.20;;;;;;5035818;28;20471;-91
2021/08/23 09:04:38;;;;;;;4.90;0.57;;;29.20;88.00;;;;;;5036531;28;20198;-90
2021/08/23 09:07:06;;;;;;;2.43;0.77;;;28.80;87.10;;;;;;5035444;28;20179;-92
2021/08/23 09:09:32;;;;;;;1.83;0.50;;;28.70;86.20;;;;;;5049450;28;20484;-91
2021/08/23 09:12:02;;;;;;;1.60;0.73;;;29.00;85.90;;;;;;5056567;28;20424;-92
2021/08/23 09:14:29;;;;;;;2.37;0.67;;;28.80;84.90;;;;;;5057026;28;20416;-89
2021/08/23 09:17:05;;;;;;;1.00;0.50;;;29.20;85.90;;;;;;5056014;28;20432;-95
2021/08/23 09:19:34;;;;;;;1.63;0.50;;;29.70;84.80;;;;;;5057624;28;20526;-92
2021/08/23 09:22:10;;;;;;;2.47;1.27;;;29.60;79.80;;;;;;5055590;28;20462;-92
2021/08/23 09:24:38;;;;;;;1.10;0.30;;;29.80;78.20;;;;;;5056234;28;20864;-91
2021/08/23 09:27:12;;;;;;;3.00;0.87;;;29.90;80.20;;;;;;5056927;28;20424;-92
2021/08/23 09:30:00;;;;;;;1.10;0.27;;;29.60;79.50;;;;;;5056114;28;20936;-92
2021/08/23 09:32:31;;;;;;;3.43;0.60;;;30.00;87.80;;;;;;5057478;28;20428;-93
2021/08/23 09:34:57;;;;;;;2.10;0.50;;;29.40;73.80;;;;;;5056001;28;20408;-92
2021/08/23 09:37:26;;;;;;;1.47;0.57;;;29.40;77.60;;;;;;5055614;28;20517;-92
2021/08/23 09:39:54;;;;;;;1.13;0.40;;;29.80;76.20;;;;;;5057082;28;20412;-95
2021/08/23 09:42:24;;;;;;;2.60;0.50;;;29.20;81.60;;;;;;5061008;28;20428;-92
2021/08/23 09:44:51;;;;;;;2.83;1.00;;;29.40;75.10;;;;;;5058655;28;20459;-92
2021/08/23 09:47:17;;;;;;;1.87;0.83;;;29.80;84.00;;;;;;5056338;28;20428;-91
2021/08/23 09:49:47;;;;;;;1.53;0.70;;;29.80;75.80;;;;;;5059318;28;20468;-92
2021/08/23 09:52:27;;;;;;;2.60;0.50;;;29.70;79.20;;;;;;5058789;28;20427;-94
2021/08/23 09:55:04;;;;;;;2.40;0.53;;;29.80;77.00;;;;;;5055813;28;20477;-94
2021/08/23 09:57:36;;;;;;;2.13;1.00;;;29.70;79.70;;;;;;5056320;28;20436;-93
2021/08/23 10:00:04;;;;;;;1.20;0.47;;;29.80;74.80;;;;;;5060285;28;20542;-91
2021/08/23 10:02:30;;;;;;;4.10;0.97;;;30.00;77.10;;;;;;5056821;28;20435;-93
2021/08/23 10:04:58;;;;;;;3.33;0.83;;;30.30;75.20;;;;;;5060719;28;20456;-93
2021/08/23 10:07:27;;;;;;;7.30;0.80;;;29.60;73.00;;;;;;5060584;28;20266;-93
2021/08/23 10:09:53;;;;;;;4.00;0.80;;;29.60;75.00;;;;;;5071458;28;20412;-92
2021/08/23 10:12:19;;;;;;;1.30;0.60;;;29.80;81.00;;;;;;5055668;28;20420;-90
2021/08/23 10:14:44;;;;;;;1.40;0.80;;;29.60;73.00;;;;;;5055673;28;20466;-90
2021/08/23 10:17:10;;;;;;;1.20;0.67;;;29.80;76.40;;;;;;5055663;28;20264;-92
2021/08/23 10:19:37;;;;;;;2.20;0.90;;;29.00;80.70;;;;;;5053227;28;20178;-89
2021/08/23 10:22:03;;;;;;;2.30;0.50;;;28.40;83.00;;;;;;5055976;28;20256;-88
2021/08/23 10:24:30;;;;;;;2.00;0.77;;;27.10;87.10;;;;;;5052838;28;20416;-88
2021/08/23 10:26:58;;;;;;;3.97;1.10;;;27.70;86.30;;;;;;5054549;28;20578;-88
2021/08/23 10:29:24;;;;;;;1.57;0.80;;;27.50;80.20;;;;;;5054092;28;20416;-87
2021/08/23 10:31:50;;;;;;;1.23;0.57;;;28.20;79.70;;;;;;5052633;28;20424;-87
2021/08/23 10:34:19;;;;;;;1.70;0.50;;;29.00;84.60;;;;;;5052494;28;20416;-87
2021/08/23 10:36:50;;;;;;;2.20;0.63;;;28.80;72.50;;;;;;5053356;28;20940;-90
2021/08/23 10:39:24;;;;;;;2.33;0.80;;;29.10;75.00;;;;;;5054784;28;20407;-91
2021/08/23 10:41:52;;;;;;;2.67;0.93;;;29.40;77.10;;;;;;5054560;28;20444;-89
2021/08/23 10:44:34;;;;;;;2.80;0.50;;;29.30;74.50;;;;;;5065875;28;21047;-90
2021/08/23 10:47:11;;;;;;;1.93;0.50;;;29.00;85.50;;;;;;5062555;28;20427;-90
2021/08/23 10:49:39;;;;;;;2.10;0.87;;;27.90;91.50;;;;;;5052392;28;20971;-87
2021/08/23 10:52:05;;;;;;;1.67;0.50;;;27.60;94.40;;;;;;5055610;28;20419;-87
2021/08/23 10:54:37;;;;;;;2.00;0.77;;;26.60;95.90;;;;;;5048899;28;20470;-88
2021/08/23 10:57:06;;;;;;;1.90;0.30;;;27.00;93.80;;;;;;5039067;28;20175;-88
2021/08/23 10:59:51;;;;;;;2.70;0.43;;;26.50;92.40;;;;;;5032022;28;20515;-87
2021/08/23 11:02:38;;;;;;;1.40;0.80;;;26.70;90.50;;;;;;5033373;28;20425;-84
2021/08/23 11:05:09;;;;;;;2.40;0.50;;;27.20;90.30;;;;;;5032697;28;20815;-85
2021/08/23 11:07:36;;;;;;;1.97;0.50;;;27.70;90.50;;;;;;5033012;28;20772;-86
2021/08/23 11:10:05;;;;;;;0.87;0.23;;;27.70;82.10;;;;;;5032726;28;20470;-86
2021/08/23 11:12:46;;;;;;;1.33;0.70;;;27.30;88.50;;;;;;5033255;28;20406;-86
2021/08/23 11:15:27;;;;;;;1.40;0.40;;;26.00;91.40;;;;;;5032741;28;20417;-86
2021/08/23 11:18:03;;;;;;;1.40;0.73;;;26.10;94.60;;;;;;5035140;28;20870;-86
2021/08/23 11:20:31;;;;;;;1.40;0.63;;;25.20;95.40;;;;;;5050343;28;20498;-88
2021/08/23 11:22:58;;;;;;;1.40;0.40;;;25.90;95.10;;;;;;5036208;28;20437;-90
2021/08/23 11:25:33;;;;;;;2.27;0.60;;;24.90;95.30;;;;;;5032137;28;20846;-87
2021/08/23 11:28:00;;;;;;;1.50;0.40;;;24.20;98.20;;;;;;5033940;28;20428;-91
2021/08/23 11:30:32;;;;;;;1.27;0.43;;;25.40;97.80;;;;;;5033859;28;20798;-90
2021/08/23 11:32:57;;;;;;;1.10;0.37;;;26.90;94.00;;;;;;5035740;28;20518;-90
2021/08/23 11:35:23;;;;;;;1.40;0.63;;;27.00;95.90;;;;;;5032320;28;20440;-86
2021/08/23 11:38:01;;;;;;;1.70;0.40;;;26.80;89.60;;;;;;5034302;28;20181;-87
2021/08/23 11:40:28;;;;;;;0.80;0.40;;;26.30;94.30;;;;;;5034940;28;20174;-87
2021/08/23 11:42:56;;;;;;;0.87;0.33;;;27.10;92.70;;;;;;5044364;28;20408;-88
2021/08/23 11:45:25;;;;;;;1.73;0.43;;;27.80;90.20;;;;;;5053361;28;20459;-86
2021/08/23 11:47:51;;;;;;;1.10;0.50;;;27.70;81.90;;;;;;5051911;28;20445;-88
2021/08/23 11:50:19;;;;;;;1.90;0.80;;;28.00;90.40;;;;;;5052359;28;20505;-86
2021/08/23 11:52:45;;;;;;;1.17;0.30;;;28.40;84.10;;;;;;5052716;28;20436;-88
2021/08/23 11:55:11;;;;;;;1.20;0.60;;;27.40;83.90;;;;;;5053707;28;20422;-88
2021/08/23 11:57:36;;;;;;;1.70;0.67;;;26.50;89.80;;;;;;5053092;28;20413;-90
2021/08/23 12:00:05;;;;;;;1.90;0.67;;;27.10;94.10;;;;;;5054003;28;20181;-92
2021/08/23 12:02:37;;;;;;;3.17;0.60;;;26.90;92.20;;;;;;5053171;28;20182;-90
2021/08/23 12:05:15;;;;;;;1.40;0.50;;;27.60;89.30;;;;;;5058739;28;20463;-93
2021/08/23 12:07:49;;;;;;;1.87;0.40;;;27.90;82.40;;;;;;5074551;28;20451;-91
2021/08/23 12:10:25;;;;;;;2.33;0.47;;;27.10;85.90;;;;;;5077423;28;20399;-89
2021/08/23 12:12:52;;;;;;;2.40;0.53;;;26.30;84.80;;;;;;5063080;28;20447;-87
2021/08/23 12:15:20;;;;;;;2.27;0.30;;;26.70;84.70;;;;;;5054591;28;20863;-88
2021/08/23 12:17:46;;;;;;;2.70;0.80;;;27.40;84.50;;;;;;5054400;28;20485;-89
2021/08/23 12:20:11;;;;;;;3.63;0.70;;;27.70;78.30;;;;;;5053067;28;20412;-86
2021/08/23 12:22:37;;;;;;;2.20;0.40;;;28.10;78.70;;;;;;5052640;28;20173;-86
2021/08/23 12:25:03;;;;;;;1.27;0.57;;;28.30;75.50;;;;;;5052431;28;20205;-88
2021/08/23 12:27:29;;;;;;;1.73;0.50;;;28.70;77.40;;;;;;5050381;28;20664;-86
2021/08/23 12:29:54;;;;;;;2.07;0.70;;;28.90;77.20;;;;;;5053215;28;20168;-86
2021/08/23 12:32:20;;;;;;;1.37;0.47;;;28.80;73.40;;;;;;5052993;28;20491;-86
2021/08/23 12:34:51;;;;;;;2.00;0.37;;;28.60;76.90;;;;;;5053027;28;20173;-90
2021/08/23 12:37:19;;;;;;;2.33;0.40;;;28.30;75.50;;;;;;5052920;28;20176;-91
2021/08/23 12:39:46;;;;;;;0.97;0.30;;;28.50;73.10;;;;;;5051184;28;20424;-89
2021/08/23 12:42:13;;;;;;;1.53;1.00;;;28.70;76.60;;;;;;5052404;28;20451;-84
2021/08/23 12:44:39;;;;;;;1.13;0.70;;;28.40;71.20;;;;;;5052345;28;20555;-87